Baie-Trinite, Canada
Current Conditions -  °F | °C
As of 11:00 AM on Wednesday 22 Oct 2014 (Local Time) from CYBC Reporting Station
Clear Clear  
Wind Chill: 37°   Ceiling: Unl
Heat Index: 43°   Visibility: 9mi
Dew Point: 30°   Wind: 10mph
Humidity: 61%   Direction: 70°ENE
Pressure: 30.53"   Gusts: NA
Location:  49.43°N, 67.28°W
Report Text: CYBC 221500Z AUTO 07009KT 9SM CLR 06/M01 A3053 RMK SLP339
Loading
Personal Weather Stations






























Interactive Weather Map
Tropical Storm Tracking
New forecast layout! Learn more

10-Day Weather Forecast

Advertisements
Track Severe Weather on mobile